Yuma, AZ (85364)

2:54 PM MST on September 04, 2015 (GMT -0700)
APRSWXNET | | Change Station
CLOSE
Current Station
Personal Weather Station
Location: Yuma, AZ
Elevation: 125 ft
Nearby Weather Stations

Elev 125 ft 32.72 °N, 114.65 °W | Updated 15 minutes ago

Clear
Clear
99 °F
Feels Like 102 °F
N
3
Wind Variable Wind from SE
Gusts 8.0 mph

Today
High -- | Low -- °F
--% Chance of Precip.
Yesterday
High -- | Low -- °F
Precip. -- in
6:15 AM 6:59 PM
Waning Gibbous, 55% visible
Pressure 29.70 in
Visibility 10.0 miles
Clouds Clear
Heat Index 102 °F
Dew Point 64 °F
Humidity 32%
Rainfall in
Snow Depth Not available.
UV 9 out of 12
Pollen 7.50 out of 12
Air Quality Not available.
Flu Activity Not available.
METAR KNYL 042057Z AUTO 21008KT 10SM CLR 37/15 A2971 RMK AO2 SLP057 T03670150 58018
Pressure 29.70 in
Visibility 10.0 miles
Clouds Clear
Heat Index 102 °F
Dew Point 64 °F
Humidity 32%
Rainfall in
Snow Depth Not available.
UV 9 out of 12
Pollen 7.50 out of 12
Air Quality Not available.
Flu Activity Not available.
METAR KNYL 042057Z AUTO 21008KT 10SM CLR 37/15 A2971 RMK AO2 SLP057 T03670150 58018

10-Day Weather Forecast

×

Almanac

Astronomy

Sep. 04, 2015 Rise Set
Actual Time
Civil Twilight
Nautical Twilight
Astronomical Twilight
Moon
Length of Visible Light
Length of Day
Tomorrow will be .
, % of the Moon is Illuminated

Today's Extremes

State Highs State Lows

Community

WunderPhotos

Upload Photos

1,852,297 photos uploaded!

WunderBlogs® & News

Nearby

Air Quality

  Air Quality AQ Index Pollutant
Not available.

Snow Depth

Station Depth Elevation

Earthquake Activity

City Distance Mag. Time & Date
Minimum magnitude displayed is 2.5.

Coastal Water Temperatures

Place Temperature

Stations

Nearby Weather Stations

Station Location Temp. Windchill Dew Point Humidity Wind Precip. Elev Updated Type